Jomi — C6VK4 — position and weather

sailwx.info

Track history (hours):
 
Tides and Currents Weather Stations Pressure Air Temp Water Temp Dewpoint Dewpoint Depression Visibility Wind Speed Wind Dir Waves Ship Positions

Jomi

Last reported at 2017-Oct-19 01:37 UTC. Time now 2017-Oct-19 12:42 UTC.
Position N 57°31' W 001°32'.

Length 88 m; draft 6 m.

Type: Cargo ship. MMSI: 309701000.

Date/timePositionNaut miles runAvg speedWind from/ knotsBaromVisibWave heightAir tempDewpointWater temp
2017-Oct-19 01:37N 57°31' W 001°32'110.2
2017-Oct-19 01:30N 57°32' W 001°33'510.8
2017-Oct-19 01:00N 57°37' W 001°38'611.2
2017-Oct-19 00:30N 57°42' W 001°43'611.2
2017-Oct-19 00:00N 57°46' W 001°49'5510.3
2017-Oct-18 18:39N 58°32' W 002°50'110.7
2017-Oct-18 18:30N 58°33' W 002°51'611.3
2017-Oct-18 18:00N 58°38' W 002°56'713.0
2017-Oct-18 17:30N 58°43' W 003°05'1111.0
2017-Oct-18 16:33N 58°47' W 003°23'011.3
2017-Oct-18 16:30N 58°47' W 003°24'510.0
2017-Oct-18 16:00N 58°49' W 003°33'5 9.4
2017-Oct-18 15:30N 58°51' W 003°41'5 9.0
2017-Oct-18 15:00N 58°53' W 003°49'9 8.7
2017-Oct-18 14:00N 58°57' W 004°04'4 8.7
2017-Oct-18 13:30N 58°59' W 004°12'  
Track history (hours):
 
Tides and Currents Weather Stations Pressure Air Temp Water Temp Dewpoint Dewpoint Depression Visibility Wind Speed Wind Dir Waves Ship Positions

Jomi

Last reported at 2017-Oct-19 01:37 UTC. Time now 2017-Oct-19 12:42 UTC.
Position N 57°31' W 001°32'.

Length 88 m; draft 6 m.

Type: Cargo ship. MMSI: 309701000.

Date/timePositionNaut miles runAvg speedWind from/ knotsBaromVisibWave heightAir tempDewpointWater temp
2017-Oct-19 01:37N 57°31' W 001°32'110.2
2017-Oct-19 01:30N 57°32' W 001°33'510.8
2017-Oct-19 01:00N 57°37' W 001°38'611.2
2017-Oct-19 00:30N 57°42' W 001°43'611.2
2017-Oct-19 00:00N 57°46' W 001°49'5510.3
2017-Oct-18 18:39N 58°32' W 002°50'110.7
2017-Oct-18 18:30N 58°33' W 002°51'611.3
2017-Oct-18 18:00N 58°38' W 002°56'713.0
2017-Oct-18 17:30N 58°43' W 003°05'1111.0
2017-Oct-18 16:33N 58°47' W 003°23'011.3
2017-Oct-18 16:30N 58°47' W 003°24'510.0
2017-Oct-18 16:00N 58°49' W 003°33'5 9.4
2017-Oct-18 15:30N 58°51' W 003°41'5 9.0
2017-Oct-18 15:00N 58°53' W 003°49'9 8.7
2017-Oct-18 14:00N 58°57' W 004°04'4 8.7
2017-Oct-18 13:30N 58°59' W 004°12'  

Dump ship's entire track history